sensor_id;sensor_type;location;lat;lon;timestamp;P1;durP1;ratioP1;P2;durP2;ratioP2
13327;SDS011;6733;51.044;3.746;2023-09-19T00:00:45;7.13;;;2.87;;
13327;SDS011;6733;51.044;3.746;2023-09-19T00:03:15;5.20;;;2.80;;
13327;SDS011;6733;51.044;3.746;2023-09-19T00:05:42;8.70;;;3.40;;
13327;SDS011;6733;51.044;3.746;2023-09-19T00:08:09;9.30;;;3.77;;
13327;SDS011;6733;51.044;3.746;2023-09-19T00:10:36;11.60;;;3.23;;
13327;SDS011;6733;51.044;3.746;2023-09-19T00:13:03;7.20;;;2.93;;
13327;SDS011;6733;51.044;3.746;2023-09-19T00:15:37;7.53;;;2.77;;
13327;SDS011;6733;51.044;3.746;2023-09-19T00:18:05;6.17;;;2.60;;
13327;SDS011;6733;51.044;3.746;2023-09-19T00:20:37;9.90;;;3.03;;
13327;SDS011;6733;51.044;3.746;2023-09-19T00:23:04;7.43;;;3.10;;
13327;SDS011;6733;51.044;3.746;2023-09-19T00:25:31;9.50;;;3.20;;
13327;SDS011;6733;51.044;3.746;2023-09-19T00:28:01;7.77;;;2.60;;
13327;SDS011;6733;51.044;3.746;2023-09-19T00:30:27;9.13;;;3.40;;
13327;SDS011;6733;51.044;3.746;2023-09-19T00:32:53;5.67;;;3.07;;
13327;SDS011;6733;51.044;3.746;2023-09-19T00:35:20;9.63;;;2.90;;
13327;SDS011;6733;51.044;3.746;2023-09-19T00:37:50;9.17;;;3.23;;
13327;SDS011;6733;51.044;3.746;2023-09-19T00:40:17;6.67;;;3.00;;
13327;SDS011;6733;51.044;3.746;2023-09-19T00:42:44;7.47;;;2.90;;
13327;SDS011;6733;51.044;3.746;2023-09-19T00:45:13;6.37;;;2.83;;
13327;SDS011;6733;51.044;3.746;2023-09-19T00:47:41;8.90;;;3.30;;
13327;SDS011;6733;51.044;3.746;2023-09-19T00:50:09;11.93;;;3.37;;
13327;SDS011;6733;51.044;3.746;2023-09-19T00:52:36;8.13;;;3.10;;
13327;SDS011;6733;51.044;3.746;2023-09-19T00:55:07;7.33;;;2.77;;
13327;SDS011;6733;51.044;3.746;2023-09-19T00:57:35;11.57;;;3.50;;
13327;SDS011;6733;51.044;3.746;2023-09-19T01:00:04;8.33;;;3.10;;
13327;SDS011;6733;51.044;3.746;2023-09-19T01:02:34;7.80;;;3.37;;
13327;SDS011;6733;51.044;3.746;2023-09-19T01:05:01;8.33;;;3.67;;
13327;SDS011;6733;51.044;3.746;2023-09-19T01:07:29;9.80;;;3.57;;
13327;SDS011;6733;51.044;3.746;2023-09-19T01:09:57;10.80;;;3.53;;
13327;SDS011;6733;51.044;3.746;2023-09-19T01:21:03;9.23;;;4.00;;
13327;SDS011;6733;51.044;3.746;2023-09-19T01:26:18;11.23;;;3.70;;
13327;SDS011;6733;51.044;3.746;2023-09-19T01:29:33;8.30;;;3.40;;
13327;SDS011;6733;51.044;3.746;2023-09-19T01:32:05;12.10;;;3.73;;
13327;SDS011;6733;51.044;3.746;2023-09-19T01:37:22;10.83;;;3.50;;
13327;SDS011;6733;51.044;3.746;2023-09-19T01:39:52;8.27;;;3.33;;
13327;SDS011;6733;51.044;3.746;2023-09-19T01:42:32;9.93;;;3.40;;
13327;SDS011;6733;51.044;3.746;2023-09-19T01:45:11;8.83;;;3.20;;
13327;SDS011;6733;51.044;3.746;2023-09-19T01:47:51;7.60;;;3.03;;
13327;SDS011;6733;51.044;3.746;2023-09-19T01:52:54;10.17;;;3.40;;
13327;SDS011;6733;51.044;3.746;2023-09-19T01:55:26;9.67;;;3.63;;
13327;SDS011;6733;51.044;3.746;2023-09-19T01:58:01;10.03;;;3.90;;
13327;SDS011;6733;51.044;3.746;2023-09-19T02:00:38;10.33;;;4.10;;
13327;SDS011;6733;51.044;3.746;2023-09-19T02:03:08;8.43;;;3.37;;
13327;SDS011;6733;51.044;3.746;2023-09-19T02:05:35;10.80;;;3.53;;
13327;SDS011;6733;51.044;3.746;2023-09-19T02:08:01;13.60;;;3.73;;
13327;SDS011;6733;51.044;3.746;2023-09-19T02:10:27;12.67;;;4.00;;
13327;SDS011;6733;51.044;3.746;2023-09-19T02:12:54;10.73;;;3.80;;
13327;SDS011;6733;51.044;3.746;2023-09-19T02:15:20;9.90;;;2.97;;
13327;SDS011;6733;51.044;3.746;2023-09-19T02:17:47;9.60;;;3.00;;
13327;SDS011;6733;51.044;3.746;2023-09-19T02:20:14;12.80;;;3.87;;
13327;SDS011;6733;51.044;3.746;2023-09-19T02:22:41;10.63;;;4.03;;
13327;SDS011;6733;51.044;3.746;2023-09-19T02:25:08;11.40;;;4.17;;
13327;SDS011;6733;51.044;3.746;2023-09-19T02:27:34;7.37;;;3.40;;
13327;SDS011;6733;51.044;3.746;2023-09-19T02:30:01;10.83;;;3.93;;
13327;SDS011;6733;51.044;3.746;2023-09-19T02:58:36;9.80;;;3.33;;
13327;SDS011;6733;51.044;3.746;2023-09-19T03:01:12;9.73;;;3.60;;
13327;SDS011;6733;51.044;3.746;2023-09-19T03:03:38;10.07;;;3.40;;
13327;SDS011;6733;51.044;3.746;2023-09-19T03:06:05;11.57;;;3.40;;
13327;SDS011;6733;51.044;3.746;2023-09-19T03:08:35;8.73;;;3.10;;
13327;SDS011;6733;51.044;3.746;2023-09-19T03:11:05;10.37;;;3.23;;
13327;SDS011;6733;51.044;3.746;2023-09-19T03:13:34;9.53;;;3.30;;
13327;SDS011;6733;51.044;3.746;2023-09-19T03:16:01;12.20;;;3.40;;
13327;SDS011;6733;51.044;3.746;2023-09-19T03:18:30;9.17;;;2.90;;
13327;SDS011;6733;51.044;3.746;2023-09-19T03:21:00;8.10;;;3.20;;
13327;SDS011;6733;51.044;3.746;2023-09-19T03:23:26;9.87;;;3.60;;
13327;SDS011;6733;51.044;3.746;2023-09-19T03:25:54;9.53;;;4.17;;
13327;SDS011;6733;51.044;3.746;2023-09-19T03:28:21;11.53;;;3.67;;
13327;SDS011;6733;51.044;3.746;2023-09-19T03:31:01;10.20;;;3.77;;
13327;SDS011;6733;51.044;3.746;2023-09-19T03:33:28;5.83;;;3.00;;
13327;SDS011;6733;51.044;3.746;2023-09-19T03:36:00;11.27;;;3.17;;
13327;SDS011;6733;51.044;3.746;2023-09-19T03:38:40;11.87;;;4.00;;
13327;SDS011;6733;51.044;3.746;2023-09-19T03:41:12;8.20;;;3.73;;
13327;SDS011;6733;51.044;3.746;2023-09-19T03:43:39;9.13;;;3.17;;
13327;SDS011;6733;51.044;3.746;2023-09-19T03:46:06;10.83;;;3.70;;
13327;SDS011;6733;51.044;3.746;2023-09-19T03:48:33;12.93;;;3.70;;
13327;SDS011;6733;51.044;3.746;2023-09-19T03:50:59;9.27;;;4.13;;
13327;SDS011;6733;51.044;3.746;2023-09-19T03:53:26;10.93;;;3.47;;
13327;SDS011;6733;51.044;3.746;2023-09-19T03:55:52;10.80;;;3.40;;
13327;SDS011;6733;51.044;3.746;2023-09-19T03:58:18;12.33;;;3.50;;
13327;SDS011;6733;51.044;3.746;2023-09-19T04:00:44;10.60;;;3.83;;
13327;SDS011;6733;51.044;3.746;2023-09-19T04:03:10;8.23;;;4.03;;
13327;SDS011;6733;51.044;3.746;2023-09-19T04:05:45;12.60;;;3.43;;
13327;SDS011;6733;51.044;3.746;2023-09-19T04:08:12;8.40;;;3.27;;
13327;SDS011;6733;51.044;3.746;2023-09-19T04:10:41;11.53;;;3.67;;
13327;SDS011;6733;51.044;3.746;2023-09-19T04:13:09;10.53;;;3.60;;
13327;SDS011;6733;51.044;3.746;2023-09-19T04:15:35;10.87;;;3.33;;
13327;SDS011;6733;51.044;3.746;2023-09-19T04:18:03;9.63;;;3.50;;
13327;SDS011;6733;51.044;3.746;2023-09-19T04:20:29;10.23;;;3.50;;
13327;SDS011;6733;51.044;3.746;2023-09-19T04:22:55;11.10;;;3.57;;
13327;SDS011;6733;51.044;3.746;2023-09-19T04:25:21;13.13;;;4.00;;
13327;SDS011;6733;51.044;3.746;2023-09-19T04:27:47;10.87;;;3.73;;
13327;SDS011;6733;51.044;3.746;2023-09-19T04:30:14;12.20;;;3.70;;
13327;SDS011;6733;51.044;3.746;2023-09-19T04:32:40;12.53;;;3.53;;
13327;SDS011;6733;51.044;3.746;2023-09-19T04:35:07;15.27;;;3.87;;
13327;SDS011;6733;51.044;3.746;2023-09-19T04:37:40;10.47;;;3.97;;
13327;SDS011;6733;51.044;3.746;2023-09-19T04:40:09;10.60;;;3.70;;
13327;SDS011;6733;51.044;3.746;2023-09-19T04:42:45;14.47;;;3.63;;
13327;SDS011;6733;51.044;3.746;2023-09-19T04:45:22;14.50;;;4.00;;
13327;SDS011;6733;51.044;3.746;2023-09-19T04:47:52;14.13;;;4.10;;
13327;SDS011;6733;51.044;3.746;2023-09-19T04:50:19;15.13;;;4.37;;
13327;SDS011;6733;51.044;3.746;2023-09-19T04:52:49;13.07;;;3.93;;
13327;SDS011;6733;51.044;3.746;2023-09-19T04:55:16;12.60;;;4.30;;
13327;SDS011;6733;51.044;3.746;2023-09-19T04:57:44;8.73;;;4.03;;
13327;SDS011;6733;51.044;3.746;2023-09-19T05:00:15;12.47;;;3.60;;
13327;SDS011;6733;51.044;3.746;2023-09-19T05:02:44;11.17;;;4.07;;
13327;SDS011;6733;51.044;3.746;2023-09-19T05:05:11;10.50;;;3.90;;
13327;SDS011;6733;51.044;3.746;2023-09-19T05:07:40;13.97;;;4.30;;
13327;SDS011;6733;51.044;3.746;2023-09-19T05:10:07;14.07;;;3.67;;
13327;SDS011;6733;51.044;3.746;2023-09-19T05:12:34;11.83;;;4.37;;
13327;SDS011;6733;51.044;3.746;2023-09-19T05:15:02;15.40;;;3.83;;
13327;SDS011;6733;51.044;3.746;2023-09-19T05:17:29;13.97;;;3.97;;
13327;SDS011;6733;51.044;3.746;2023-09-19T05:19:55;13.00;;;3.73;;
13327;SDS011;6733;51.044;3.746;2023-09-19T05:22:21;16.13;;;4.13;;
13327;SDS011;6733;51.044;3.746;2023-09-19T05:24:50;11.17;;;3.57;;
13327;SDS011;6733;51.044;3.746;2023-09-19T05:27:16;13.57;;;4.03;;
13327;SDS011;6733;51.044;3.746;2023-09-19T05:29:43;14.57;;;5.10;;
13327;SDS011;6733;51.044;3.746;2023-09-19T05:32:10;11.47;;;3.90;;
13327;SDS011;6733;51.044;3.746;2023-09-19T05:34:37;11.90;;;3.43;;
13327;SDS011;6733;51.044;3.746;2023-09-19T05:37:04;13.83;;;3.83;;
13327;SDS011;6733;51.044;3.746;2023-09-19T05:39:33;19.30;;;4.50;;
13327;SDS011;6733;51.044;3.746;2023-09-19T05:42:00;13.97;;;4.00;;
13327;SDS011;6733;51.044;3.746;2023-09-19T05:44:26;16.07;;;3.93;;
13327;SDS011;6733;51.044;3.746;2023-09-19T05:46:53;14.67;;;4.17;;
13327;SDS011;6733;51.044;3.746;2023-09-19T05:49:22;24.20;;;5.10;;
13327;SDS011;6733;51.044;3.746;2023-09-19T05:51:50;23.57;;;4.30;;
13327;SDS011;6733;51.044;3.746;2023-09-19T05:54:19;26.83;;;4.73;;
13327;SDS011;6733;51.044;3.746;2023-09-19T05:56:45;19.77;;;5.13;;
13327;SDS011;6733;51.044;3.746;2023-09-19T05:59:13;42.83;;;6.27;;
13327;SDS011;6733;51.044;3.746;2023-09-19T06:01:42;16.60;;;4.60;;
13327;SDS011;6733;51.044;3.746;2023-09-19T06:04:08;18.70;;;4.93;;
13327;SDS011;6733;51.044;3.746;2023-09-19T06:06:34;46.20;;;6.67;;
13327;SDS011;6733;51.044;3.746;2023-09-19T06:09:04;14.47;;;4.17;;
13327;SDS011;6733;51.044;3.746;2023-09-19T06:11:31;10.93;;;4.40;;
13327;SDS011;6733;51.044;3.746;2023-09-19T06:14:00;28.37;;;5.47;;
13327;SDS011;6733;51.044;3.746;2023-09-19T06:16:29;13.13;;;3.80;;
13327;SDS011;6733;51.044;3.746;2023-09-19T06:18:57;13.13;;;4.03;;
13327;SDS011;6733;51.044;3.746;2023-09-19T06:21:27;9.50;;;3.60;;
13327;SDS011;6733;51.044;3.746;2023-09-19T06:23:53;13.10;;;3.90;;
13327;SDS011;6733;51.044;3.746;2023-09-19T06:26:19;12.03;;;4.37;;
13327;SDS011;6733;51.044;3.746;2023-09-19T06:28:45;8.50;;;3.60;;
13327;SDS011;6733;51.044;3.746;2023-09-19T06:31:12;10.27;;;3.50;;
13327;SDS011;6733;51.044;3.746;2023-09-19T06:33:38;11.03;;;3.80;;
13327;SDS011;6733;51.044;3.746;2023-09-19T06:36:05;9.40;;;3.53;;
13327;SDS011;6733;51.044;3.746;2023-09-19T06:38:31;13.07;;;3.80;;
13327;SDS011;6733;51.044;3.746;2023-09-19T06:40:59;11.83;;;3.60;;
13327;SDS011;6733;51.044;3.746;2023-09-19T06:43:26;10.00;;;3.70;;
13327;SDS011;6733;51.044;3.746;2023-09-19T06:45:56;12.70;;;3.70;;
13327;SDS011;6733;51.044;3.746;2023-09-19T06:48:23;14.00;;;3.57;;
13327;SDS011;6733;51.044;3.746;2023-09-19T06:50:58;10.03;;;3.63;;
13327;SDS011;6733;51.044;3.746;2023-09-19T06:53:33;10.33;;;3.20;;
13327;SDS011;6733;51.044;3.746;2023-09-19T06:56:01;8.80;;;3.47;;
13327;SDS011;6733;51.044;3.746;2023-09-19T06:58:28;10.97;;;3.73;;
13327;SDS011;6733;51.044;3.746;2023-09-19T07:00:54;10.97;;;3.47;;
13327;SDS011;6733;51.044;3.746;2023-09-19T07:03:21;15.07;;;3.30;;
13327;SDS011;6733;51.044;3.746;2023-09-19T07:05:51;8.43;;;3.13;;
13327;SDS011;6733;51.044;3.746;2023-09-19T07:08:18;8.50;;;3.50;;
13327;SDS011;6733;51.044;3.746;2023-09-19T07:10:45;8.47;;;3.43;;
13327;SDS011;6733;51.044;3.746;2023-09-19T07:13:14;15.17;;;3.60;;
13327;SDS011;6733;51.044;3.746;2023-09-19T07:15:42;7.87;;;3.30;;
13327;SDS011;6733;51.044;3.746;2023-09-19T07:18:12;11.30;;;3.37;;
13327;SDS011;6733;51.044;3.746;2023-09-19T07:20:42;8.83;;;3.40;;
13327;SDS011;6733;51.044;3.746;2023-09-19T07:23:18;13.40;;;3.73;;
13327;SDS011;6733;51.044;3.746;2023-09-19T07:25:47;10.27;;;3.00;;
13327;SDS011;6733;51.044;3.746;2023-09-19T07:28:14;11.07;;;3.93;;
13327;SDS011;6733;51.044;3.746;2023-09-19T07:30:41;13.43;;;3.80;;
13327;SDS011;6733;51.044;3.746;2023-09-19T07:33:07;12.53;;;3.70;;
13327;SDS011;6733;51.044;3.746;2023-09-19T07:35:37;11.13;;;3.70;;
13327;SDS011;6733;51.044;3.746;2023-09-19T07:38:06;12.77;;;3.53;;
13327;SDS011;6733;51.044;3.746;2023-09-19T07:40:33;8.80;;;3.50;;
13327;SDS011;6733;51.044;3.746;2023-09-19T07:42:59;11.83;;;3.07;;
13327;SDS011;6733;51.044;3.746;2023-09-19T07:45:33;14.13;;;3.97;;
13327;SDS011;6733;51.044;3.746;2023-09-19T07:48:02;10.87;;;3.40;;
13327;SDS011;6733;51.044;3.746;2023-09-19T07:50:30;8.73;;;3.57;;
13327;SDS011;6733;51.044;3.746;2023-09-19T07:52:56;10.73;;;3.33;;
13327;SDS011;6733;51.044;3.746;2023-09-19T07:55:22;10.13;;;3.60;;
13327;SDS011;6733;51.044;3.746;2023-09-19T07:57:51;8.53;;;2.80;;
13327;SDS011;6733;51.044;3.746;2023-09-19T08:00:18;9.67;;;3.20;;
13327;SDS011;6733;51.044;3.746;2023-09-19T08:02:45;8.47;;;3.20;;
13327;SDS011;6733;51.044;3.746;2023-09-19T08:05:12;7.97;;;3.40;;
13327;SDS011;6733;51.044;3.746;2023-09-19T08:07:41;10.87;;;3.83;;
13327;SDS011;6733;51.044;3.746;2023-09-19T08:10:09;10.60;;;3.60;;
13327;SDS011;6733;51.044;3.746;2023-09-19T08:12:39;6.83;;;3.07;;
13327;SDS011;6733;51.044;3.746;2023-09-19T08:15:15;10.10;;;3.30;;
13327;SDS011;6733;51.044;3.746;2023-09-19T08:17:42;7.10;;;2.97;;
13327;SDS011;6733;51.044;3.746;2023-09-19T08:20:09;10.03;;;3.87;;
13327;SDS011;6733;51.044;3.746;2023-09-19T08:22:47;9.40;;;3.47;;
13327;SDS011;6733;51.044;3.746;2023-09-19T08:25:25;8.50;;;3.47;;
13327;SDS011;6733;51.044;3.746;2023-09-19T08:27:52;5.43;;;3.10;;
13327;SDS011;6733;51.044;3.746;2023-09-19T08:30:19;10.57;;;4.10;;
13327;SDS011;6733;51.044;3.746;2023-09-19T08:32:58;9.50;;;3.60;;
13327;SDS011;6733;51.044;3.746;2023-09-19T08:35:26;7.00;;;3.43;;
13327;SDS011;6733;51.044;3.746;2023-09-19T08:37:53;12.10;;;3.50;;
13327;SDS011;6733;51.044;3.746;2023-09-19T08:40:21;11.43;;;3.43;;
13327;SDS011;6733;51.044;3.746;2023-09-19T08:42:51;7.63;;;3.13;;
13327;SDS011;6733;51.044;3.746;2023-09-19T08:45:19;5.40;;;2.80;;
13327;SDS011;6733;51.044;3.746;2023-09-19T08:48:12;11.97;;;3.43;;
13327;SDS011;6733;51.044;3.746;2023-09-19T08:51:03;25.67;;;4.30;;
13327;SDS011;6733;51.044;3.746;2023-09-19T08:53:46;16.70;;;3.67;;
13327;SDS011;6733;51.044;3.746;2023-09-19T08:56:17;10.03;;;3.30;;
13327;SDS011;6733;51.044;3.746;2023-09-19T08:58:53;13.77;;;3.53;;
13327;SDS011;6733;51.044;3.746;2023-09-19T09:01:21;19.73;;;4.03;;
13327;SDS011;6733;51.044;3.746;2023-09-19T09:03:53;21.57;;;3.87;;
13327;SDS011;6733;51.044;3.746;2023-09-19T09:06:21;19.27;;;3.93;;
13327;SDS011;6733;51.044;3.746;2023-09-19T09:08:50;12.30;;;3.30;;
13327;SDS011;6733;51.044;3.746;2023-09-19T09:11:18;7.63;;;2.70;;
13327;SDS011;6733;51.044;3.746;2023-09-19T09:13:45;10.13;;;3.33;;
13327;SDS011;6733;51.044;3.746;2023-09-19T09:16:11;14.63;;;3.50;;
13327;SDS011;6733;51.044;3.746;2023-09-19T09:18:39;13.53;;;3.30;;
13327;SDS011;6733;51.044;3.746;2023-09-19T09:21:06;11.00;;;3.20;;
13327;SDS011;6733;51.044;3.746;2023-09-19T09:23:32;9.93;;;2.97;;
13327;SDS011;6733;51.044;3.746;2023-09-19T09:25:59;8.40;;;2.93;;
13327;SDS011;6733;51.044;3.746;2023-09-19T09:28:29;9.80;;;2.93;;
13327;SDS011;6733;51.044;3.746;2023-09-19T09:30:56;7.93;;;3.10;;
13327;SDS011;6733;51.044;3.746;2023-09-19T09:33:38;7.37;;;3.23;;
13327;SDS011;6733;51.044;3.746;2023-09-19T09:36:05;6.77;;;2.70;;
13327;SDS011;6733;51.044;3.746;2023-09-19T09:38:45;6.83;;;3.13;;
13327;SDS011;6733;51.044;3.746;2023-09-19T09:41:15;8.07;;;2.90;;
13327;SDS011;6733;51.044;3.746;2023-09-19T09:43:53;7.87;;;2.53;;
13327;SDS011;6733;51.044;3.746;2023-09-19T09:46:24;10.30;;;3.07;;
13327;SDS011;6733;51.044;3.746;2023-09-19T09:51:40;9.97;;;2.93;;
13327;SDS011;6733;51.044;3.746;2023-09-19T09:54:13;6.67;;;3.00;;
13327;SDS011;6733;51.044;3.746;2023-09-19T10:02:14;6.90;;;2.40;;
13327;SDS011;6733;51.044;3.746;2023-09-19T10:04:45;8.87;;;2.83;;
13327;SDS011;6733;51.044;3.746;2023-09-19T10:07:24;7.23;;;2.20;;
13327;SDS011;6733;51.044;3.746;2023-09-19T10:09:53;6.97;;;2.67;;
13327;SDS011;6733;51.044;3.746;2023-09-19T10:12:29;4.20;;;2.10;;
13327;SDS011;6733;51.044;3.746;2023-09-19T10:14:55;5.50;;;2.47;;
13327;SDS011;6733;51.044;3.746;2023-09-19T10:17:24;7.63;;;2.50;;
13327;SDS011;6733;51.044;3.746;2023-09-19T10:19:55;7.60;;;2.73;;
13327;SDS011;6733;51.044;3.746;2023-09-19T10:22:24;4.73;;;2.17;;
13327;SDS011;6733;51.044;3.746;2023-09-19T10:24:53;6.43;;;2.60;;
13327;SDS011;6733;51.044;3.746;2023-09-19T10:27:22;5.33;;;2.63;;
13327;SDS011;6733;51.044;3.746;2023-09-19T10:29:52;5.93;;;3.00;;
13327;SDS011;6733;51.044;3.746;2023-09-19T10:32:22;5.23;;;2.20;;
13327;SDS011;6733;51.044;3.746;2023-09-19T10:34:51;4.13;;;2.07;;
13327;SDS011;6733;51.044;3.746;2023-09-19T10:37:21;7.40;;;2.20;;
13327;SDS011;6733;51.044;3.746;2023-09-19T10:39:51;7.30;;;2.07;;
13327;SDS011;6733;51.044;3.746;2023-09-19T10:42:21;5.73;;;2.30;;
13327;SDS011;6733;51.044;3.746;2023-09-19T10:44:53;4.50;;;1.83;;
13327;SDS011;6733;51.044;3.746;2023-09-19T10:47:20;5.57;;;1.97;;
13327;SDS011;6733;51.044;3.746;2023-09-19T10:49:49;3.70;;;2.00;;
13327;SDS011;6733;51.044;3.746;2023-09-19T10:52:17;6.97;;;2.30;;
13327;SDS011;6733;51.044;3.746;2023-09-19T10:54:49;5.67;;;1.90;;
13327;SDS011;6733;51.044;3.746;2023-09-19T10:57:21;9.93;;;2.27;;
13327;SDS011;6733;51.044;3.746;2023-09-19T11:00:10;5.10;;;2.20;;
13327;SDS011;6733;51.044;3.746;2023-09-19T11:05:40;4.77;;;1.97;;
13327;SDS011;6733;51.044;3.746;2023-09-19T11:08:07;6.13;;;2.20;;
13327;SDS011;6733;51.044;3.746;2023-09-19T11:13:26;10.60;;;1.87;;
13327;SDS011;6733;51.044;3.746;2023-09-19T11:26:44;4.43;;;1.80;;
13327;SDS011;6733;51.044;3.746;2023-09-19T11:29:29;4.87;;;2.07;;
13327;SDS011;6733;51.044;3.746;2023-09-19T11:31:57;6.17;;;1.80;;
13327;SDS011;6733;51.044;3.746;2023-09-19T11:39:40;4.43;;;1.87;;
13327;SDS011;6733;51.044;3.746;2023-09-19T11:42:44;3.40;;;1.97;;
13327;SDS011;6733;51.044;3.746;2023-09-19T11:48:23;5.50;;;1.70;;
13327;SDS011;6733;51.044;3.746;2023-09-19T11:50:52;3.90;;;1.80;;
13327;SDS011;6733;51.044;3.746;2023-09-19T11:53:19;3.93;;;1.60;;
13327;SDS011;6733;51.044;3.746;2023-09-19T11:55:47;4.63;;;2.03;;
13327;SDS011;6733;51.044;3.746;2023-09-19T11:58:16;7.47;;;2.30;;
13327;SDS011;6733;51.044;3.746;2023-09-19T12:00:44;5.80;;;2.13;;
13327;SDS011;6733;51.044;3.746;2023-09-19T12:03:11;3.27;;;1.90;;
13327;SDS011;6733;51.044;3.746;2023-09-19T12:05:40;5.97;;;1.97;;
13327;SDS011;6733;51.044;3.746;2023-09-19T12:08:09;7.23;;;2.00;;
13327;SDS011;6733;51.044;3.746;2023-09-19T12:10:48;6.03;;;2.37;;
13327;SDS011;6733;51.044;3.746;2023-09-19T12:13:17;6.50;;;2.00;;
13327;SDS011;6733;51.044;3.746;2023-09-19T12:15:44;6.40;;;2.30;;
13327;SDS011;6733;51.044;3.746;2023-09-19T12:18:29;6.90;;;2.27;;
13327;SDS011;6733;51.044;3.746;2023-09-19T12:20:56;4.47;;;2.17;;
13327;SDS011;6733;51.044;3.746;2023-09-19T12:23:23;7.80;;;2.20;;
13327;SDS011;6733;51.044;3.746;2023-09-19T12:25:51;8.67;;;2.30;;
13327;SDS011;6733;51.044;3.746;2023-09-19T12:28:19;6.60;;;2.40;;
13327;SDS011;6733;51.044;3.746;2023-09-19T12:30:49;4.10;;;2.70;;
13327;SDS011;6733;51.044;3.746;2023-09-19T12:33:17;4.23;;;2.33;;
13327;SDS011;6733;51.044;3.746;2023-09-19T12:35:45;3.40;;;1.80;;
13327;SDS011;6733;51.044;3.746;2023-09-19T12:38:27;7.97;;;2.50;;
13327;SDS011;6733;51.044;3.746;2023-09-19T12:40:57;5.60;;;2.10;;
13327;SDS011;6733;51.044;3.746;2023-09-19T12:43:30;5.67;;;2.40;;
13327;SDS011;6733;51.044;3.746;2023-09-19T12:46:01;4.77;;;2.30;;
13327;SDS011;6733;51.044;3.746;2023-09-19T12:48:28;6.57;;;2.70;;
13327;SDS011;6733;51.044;3.746;2023-09-19T12:51:02;4.67;;;2.20;;
13327;SDS011;6733;51.044;3.746;2023-09-19T12:53:36;5.10;;;2.23;;
13327;SDS011;6733;51.044;3.746;2023-09-19T12:56:13;6.80;;;2.37;;
13327;SDS011;6733;51.044;3.746;2023-09-19T12:58:54;3.57;;;2.27;;
13327;SDS011;6733;51.044;3.746;2023-09-19T13:01:25;5.30;;;2.23;;
13327;SDS011;6733;51.044;3.746;2023-09-19T13:04:11;7.73;;;2.83;;
13327;SDS011;6733;51.044;3.746;2023-09-19T13:06:51;10.07;;;3.53;;
13327;SDS011;6733;51.044;3.746;2023-09-19T13:09:21;5.20;;;2.50;;
13327;SDS011;6733;51.044;3.746;2023-09-19T13:11:57;4.70;;;2.40;;
13327;SDS011;6733;51.044;3.746;2023-09-19T13:14:25;11.97;;;2.93;;
13327;SDS011;6733;51.044;3.746;2023-09-19T13:17:03;5.93;;;2.30;;
13327;SDS011;6733;51.044;3.746;2023-09-19T13:19:44;5.77;;;2.93;;
13327;SDS011;6733;51.044;3.746;2023-09-19T13:25:18;6.60;;;2.60;;
13327;SDS011;6733;51.044;3.746;2023-09-19T13:27:48;4.53;;;2.10;;
13327;SDS011;6733;51.044;3.746;2023-09-19T13:30:20;4.73;;;2.30;;
13327;SDS011;6733;51.044;3.746;2023-09-19T13:32:47;7.07;;;2.30;;
13327;SDS011;6733;51.044;3.746;2023-09-19T13:35:14;4.50;;;2.40;;
13327;SDS011;6733;51.044;3.746;2023-09-19T13:37:41;4.43;;;2.13;;
13327;SDS011;6733;51.044;3.746;2023-09-19T13:42:36;5.70;;;2.40;;
13327;SDS011;6733;51.044;3.746;2023-09-19T13:45:05;5.63;;;2.30;;
13327;SDS011;6733;51.044;3.746;2023-09-19T13:47:33;6.77;;;2.40;;
13327;SDS011;6733;51.044;3.746;2023-09-19T13:49:59;5.47;;;2.10;;
13327;SDS011;6733;51.044;3.746;2023-09-19T13:52:29;4.50;;;2.40;;
13327;SDS011;6733;51.044;3.746;2023-09-19T13:54:56;4.77;;;2.40;;
13327;SDS011;6733;51.044;3.746;2023-09-19T13:57:23;5.43;;;2.43;;
13327;SDS011;6733;51.044;3.746;2023-09-19T13:59:50;6.70;;;3.03;;
13327;SDS011;6733;51.044;3.746;2023-09-19T14:02:23;4.53;;;2.33;;
13327;SDS011;6733;51.044;3.746;2023-09-19T14:04:49;3.97;;;2.20;;
13327;SDS011;6733;51.044;3.746;2023-09-19T14:07:16;3.77;;;2.40;;
13327;SDS011;6733;51.044;3.746;2023-09-19T14:09:43;4.73;;;2.37;;
13327;SDS011;6733;51.044;3.746;2023-09-19T14:12:10;5.50;;;2.07;;
13327;SDS011;6733;51.044;3.746;2023-09-19T14:14:37;5.57;;;2.40;;
13327;SDS011;6733;51.044;3.746;2023-09-19T14:17:03;2.80;;;2.03;;
13327;SDS011;6733;51.044;3.746;2023-09-19T14:19:30;7.07;;;2.50;;
13327;SDS011;6733;51.044;3.746;2023-09-19T14:21:56;6.40;;;2.37;;
13327;SDS011;6733;51.044;3.746;2023-09-19T14:24:23;7.33;;;2.60;;
13327;SDS011;6733;51.044;3.746;2023-09-19T14:26:49;5.27;;;2.33;;
13327;SDS011;6733;51.044;3.746;2023-09-19T14:29:16;4.37;;;2.37;;
13327;SDS011;6733;51.044;3.746;2023-09-19T14:31:42;5.67;;;2.70;;
13327;SDS011;6733;51.044;3.746;2023-09-19T14:34:09;4.97;;;2.40;;
13327;SDS011;6733;51.044;3.746;2023-09-19T14:36:36;4.03;;;2.33;;
13327;SDS011;6733;51.044;3.746;2023-09-19T14:39:04;4.07;;;2.40;;
13327;SDS011;6733;51.044;3.746;2023-09-19T14:41:30;5.77;;;2.20;;
13327;SDS011;6733;51.044;3.746;2023-09-19T14:43:57;6.07;;;2.90;;
13327;SDS011;6733;51.044;3.746;2023-09-19T14:46:23;6.57;;;2.67;;
13327;SDS011;6733;51.044;3.746;2023-09-19T14:48:53;2.43;;;1.80;;
13327;SDS011;6733;51.044;3.746;2023-09-19T14:51:19;5.67;;;2.40;;
13327;SDS011;6733;51.044;3.746;2023-09-19T14:53:45;8.27;;;2.90;;
13327;SDS011;6733;51.044;3.746;2023-09-19T14:56:12;4.40;;;2.30;;
13327;SDS011;6733;51.044;3.746;2023-09-19T14:58:44;6.67;;;2.67;;
13327;SDS011;6733;51.044;3.746;2023-09-19T15:01:10;6.37;;;3.00;;
13327;SDS011;6733;51.044;3.746;2023-09-19T15:03:38;6.97;;;2.77;;
13327;SDS011;6733;51.044;3.746;2023-09-19T15:06:08;6.30;;;3.13;;
13327;SDS011;6733;51.044;3.746;2023-09-19T15:08:43;5.83;;;3.27;;
13327;SDS011;6733;51.044;3.746;2023-09-19T15:11:18;4.80;;;2.30;;
13327;SDS011;6733;51.044;3.746;2023-09-19T15:13:46;6.10;;;2.70;;
13327;SDS011;6733;51.044;3.746;2023-09-19T15:16:13;7.53;;;3.20;;
13327;SDS011;6733;51.044;3.746;2023-09-19T15:18:40;4.30;;;2.50;;
13327;SDS011;6733;51.044;3.746;2023-09-19T15:21:08;5.37;;;2.40;;
13327;SDS011;6733;51.044;3.746;2023-09-19T15:23:38;4.83;;;2.57;;
13327;SDS011;6733;51.044;3.746;2023-09-19T15:26:06;7.60;;;2.93;;
13327;SDS011;6733;51.044;3.746;2023-09-19T15:28:39;8.53;;;3.23;;
13327;SDS011;6733;51.044;3.746;2023-09-19T15:31:06;4.43;;;2.77;;
13327;SDS011;6733;51.044;3.746;2023-09-19T15:33:34;6.80;;;3.00;;
13327;SDS011;6733;51.044;3.746;2023-09-19T15:41:22;6.87;;;3.30;;
13327;SDS011;6733;51.044;3.746;2023-09-19T15:43:49;7.20;;;3.07;;
13327;SDS011;6733;51.044;3.746;2023-09-19T15:46:15;6.30;;;2.70;;
13327;SDS011;6733;51.044;3.746;2023-09-19T15:48:42;5.60;;;2.73;;
13327;SDS011;6733;51.044;3.746;2023-09-19T15:51:08;6.87;;;2.83;;
13327;SDS011;6733;51.044;3.746;2023-09-19T15:53:44;6.90;;;2.97;;
13327;SDS011;6733;51.044;3.746;2023-09-19T15:56:12;6.37;;;3.00;;
13327;SDS011;6733;51.044;3.746;2023-09-19T15:58:45;4.80;;;2.90;;
13327;SDS011;6733;51.044;3.746;2023-09-19T16:01:12;10.60;;;3.13;;
13327;SDS011;6733;51.044;3.746;2023-09-19T16:03:45;5.23;;;3.00;;
13327;SDS011;6733;51.044;3.746;2023-09-19T16:06:14;7.40;;;3.27;;
13327;SDS011;6733;51.044;3.746;2023-09-19T16:08:48;9.33;;;2.87;;
13327;SDS011;6733;51.044;3.746;2023-09-19T16:11:15;6.93;;;2.80;;
13327;SDS011;6733;51.044;3.746;2023-09-19T16:13:43;6.17;;;3.27;;
13327;SDS011;6733;51.044;3.746;2023-09-19T16:16:12;5.97;;;3.30;;
13327;SDS011;6733;51.044;3.746;2023-09-19T16:18:47;6.83;;;2.97;;
13327;SDS011;6733;51.044;3.746;2023-09-19T16:21:15;7.87;;;3.03;;
13327;SDS011;6733;51.044;3.746;2023-09-19T16:23:44;4.57;;;2.53;;
13327;SDS011;6733;51.044;3.746;2023-09-19T16:26:11;5.73;;;2.97;;
13327;SDS011;6733;51.044;3.746;2023-09-19T16:28:39;11.07;;;3.30;;
13327;SDS011;6733;51.044;3.746;2023-09-19T16:31:07;6.27;;;3.00;;
13327;SDS011;6733;51.044;3.746;2023-09-19T16:33:34;5.13;;;2.97;;
13327;SDS011;6733;51.044;3.746;2023-09-19T16:36:18;5.27;;;2.90;;